Time;durP1;ratioP1;P1;durP2;ratioP2;P2;SDS_P1;SDS_P2;PMS_P1;PMS_P2;Temp;Humidity;BMP_temperature;BMP_pressure;BME280_temperature;BME280_humidity;BME280_pressure;Samples;Min_cycle;Max_cycle;Signal;HPM_P1;HPM_P2
2021/10/13 00:01:04;;;;;;;9.32;4.07;;;9.80;99.90;;;9.54;100.00;102215.22;4201090;28;20024;-70
2021/10/13 00:03:04;;;;;;;6.78;3.60;;;9.90;99.90;;;9.56;100.00;102213.31;4202155;28;20078;-70
2021/10/13 00:05:08;;;;;;;9.05;3.45;;;9.90;99.90;;;9.54;100.00;102212.59;4201022;28;20516;-70
2021/10/13 00:07:09;;;;;;;12.50;3.87;;;9.90;99.90;;;9.62;100.00;102226.03;4200868;28;20040;-70
2021/10/13 00:09:10;;;;;;;7.82;3.60;;;9.80;99.90;;;9.55;100.00;102231.88;4202253;28;20028;-70
2021/10/13 00:11:11;;;;;;;7.60;4.18;;;9.80;99.90;;;9.46;100.00;102217.59;4200925;28;20067;-70
2021/10/13 00:13:13;;;;;;;5.97;3.47;;;9.80;99.90;;;9.45;100.00;102226.44;4202001;28;20024;-70
2021/10/13 00:15:14;;;;;;;8.07;2.97;;;9.80;99.90;;;9.39;100.00;102222.47;4201059;28;20067;-70
2021/10/13 00:17:15;;;;;;;8.57;3.15;;;9.70;99.90;;;9.39;100.00;102218.97;4201869;28;20045;-70
2021/10/13 00:19:16;;;;;;;9.68;3.70;;;9.70;99.90;;;9.38;100.00;102222.56;4200917;28;20112;-70
2021/10/13 00:21:17;;;;;;;7.45;3.33;;;9.70;99.90;;;9.37;100.00;102213.00;4201868;28;20461;-70
2021/10/13 00:23:18;;;;;;;8.93;3.83;;;9.70;99.90;;;9.36;100.00;102225.31;4201812;28;20025;-70
2021/10/13 00:25:19;;;;;;;6.57;3.85;;;9.70;99.90;;;9.31;100.00;102213.44;4200841;28;20036;-70
2021/10/13 00:27:20;;;;;;;8.68;3.58;;;9.60;99.90;;;9.28;100.00;102218.94;4201902;28;20025;-70
2021/10/13 00:29:21;;;;;;;6.40;3.05;;;9.60;99.90;;;9.34;100.00;102213.22;4200588;28;20032;-70
2021/10/13 00:31:22;;;;;;;5.85;3.22;;;9.60;99.90;;;9.26;100.00;102215.53;4200668;28;20020;-70
2021/10/13 00:33:23;;;;;;;8.82;3.35;;;9.60;99.90;;;9.25;100.00;102209.47;4200633;28;20036;-70
2021/10/13 00:35:24;;;;;;;3.97;2.75;;;9.60;99.90;;;9.18;100.00;102212.63;4199738;28;20074;-70
2021/10/13 00:37:25;;;;;;;5.15;3.15;;;9.50;99.90;;;9.19;100.00;102206.44;4201540;28;20033;-70
2021/10/13 00:39:26;;;;;;;7.15;2.97;;;9.60;99.90;;;9.20;100.00;102210.75;4201829;28;20020;-70
2021/10/13 00:41:26;;;;;;;6.70;3.40;;;9.60;99.90;;;9.19;100.00;102215.19;4201701;28;20017;-70
2021/10/13 00:43:27;;;;;;;4.80;2.72;;;9.50;99.90;;;9.15;100.00;102218.13;4201731;28;20025;-70
2021/10/13 00:45:28;;;;;;;5.95;3.08;;;9.50;99.90;;;9.19;100.00;102223.06;4201785;28;20020;-70
2021/10/13 00:47:29;;;;;;;5.57;3.25;;;9.50;99.90;;;9.18;100.00;102217.91;4200472;28;20052;-70
2021/10/13 00:49:31;;;;;;;3.78;2.75;;;9.50;99.90;;;9.13;100.00;102215.63;4200475;28;20122;-70
2021/10/13 00:51:33;;;;;;;8.00;3.38;;;9.40;99.90;;;9.18;100.00;102217.91;4200217;28;20028;-70
2021/10/13 00:53:34;;;;;;;7.38;3.33;;;9.50;99.90;;;9.05;100.00;102206.59;4200511;28;20039;-70
2021/10/13 00:55:35;;;;;;;5.93;2.50;;;9.40;99.90;;;9.04;100.00;102218.06;4183689;28;20024;-70
2021/10/13 00:57:36;;;;;;;5.22;3.03;;;9.40;99.90;;;9.00;100.00;102208.69;4191209;28;20028;-70
2021/10/13 00:59:37;;;;;;;7.35;3.65;;;9.40;99.90;;;9.02;100.00;102215.53;4200448;28;20047;-70
2021/10/13 01:02:01;;;;;;;5.63;2.80;;;9.40;99.90;;;8.95;100.00;102205.56;4200343;28;20086;-70
2021/10/13 01:04:29;;;;;;;8.88;3.00;;;9.40;99.90;;;9.00;100.00;102219.22;4200659;28;20025;-70
2021/10/13 01:06:54;;;;;;;7.45;3.55;;;9.30;99.90;;;8.89;100.00;102220.84;4200008;28;20033;-70
2021/10/13 01:09:26;;;;;;;8.70;3.15;;;9.30;99.90;;;8.92;100.00;102211.06;4201748;28;20024;-70
2021/10/13 01:12:04;;;;;;;6.40;2.70;;;9.30;99.90;;;8.86;100.00;102207.06;4201556;28;20029;-70
2021/10/13 01:14:29;;;;;;;6.32;2.90;;;9.30;99.90;;;8.87;100.00;102206.94;4201547;28;20052;-70
2021/10/13 01:16:45;;;;;;;5.93;2.80;;;9.20;99.90;;;8.86;100.00;102209.69;4201301;28;20484;-70
2021/10/13 01:19:46;;;;;;;7.85;2.95;;;9.20;99.90;;;8.83;100.00;102218.66;4200426;28;20491;-70
2021/10/13 01:22:27;;;;;;;3.92;2.80;;;9.20;99.90;;;8.78;100.00;102220.75;4199893;28;20428;-70
2021/10/13 01:25:34;;;;;;;5.07;2.90;;;9.20;99.90;;;8.77;100.00;102216.47;4201351;28;20074;-70
2021/10/13 01:28:30;;;;;;;5.28;3.25;;;9.20;99.90;;;8.77;100.00;102202.47;4184588;28;20416;-70
2021/10/13 01:30:43;;;;;;;5.57;2.97;;;9.20;99.90;;;8.76;100.00;102206.03;4189733;28;20151;-70
2021/10/13 01:32:59;;;;;;;6.97;2.85;;;9.10;99.90;;;8.73;100.00;102211.50;4200121;28;20103;-70
2021/10/13 01:35:02;;;;;;;7.00;3.30;;;9.10;99.90;;;8.68;100.00;102209.22;4200352;28;20534;-70
2021/10/13 01:37:09;;;;;;;4.40;2.53;;;9.10;99.90;;;8.69;100.00;102210.88;4201075;28;20021;-70
2021/10/13 01:39:12;;;;;;;3.50;2.58;;;9.10;99.90;;;8.63;100.00;102211.31;4200024;28;20016;-71
2021/10/13 01:41:14;;;;;;;7.18;3.60;;;9.10;99.90;;;8.65;100.00;102206.81;4183305;28;20052;-70
2021/10/13 01:43:17;;;;;;;4.68;2.80;;;9.10;99.90;;;8.68;100.00;102206.59;4190407;28;20033;-70
2021/10/13 01:45:19;;;;;;;6.32;3.20;;;9.00;99.90;;;8.71;100.00;102198.47;4200136;28;20028;-70
2021/10/13 01:47:22;;;;;;;7.38;3.40;;;9.10;99.90;;;8.70;100.00;102202.03;4201605;28;20052;-70
2021/10/13 01:49:24;;;;;;;6.32;3.20;;;9.10;99.90;;;8.71;100.00;102211.63;4204458;28;20506;-70
2021/10/13 01:51:28;;;;;;;7.03;3.58;;;9.10;99.90;;;8.77;100.00;102208.56;4203058;28;20059;-70
2021/10/13 01:53:30;;;;;;;7.88;3.90;;;9.10;99.90;;;8.70;100.00;102196.78;4203299;28;20446;-70
2021/10/13 01:55:32;;;;;;;4.03;2.80;;;9.10;99.90;;;8.69;100.00;102196.91;4186449;28;20029;-70
2021/10/13 01:57:35;;;;;;;6.88;2.67;;;9.10;99.90;;;8.72;100.00;102200.13;4203041;28;20063;-70
2021/10/13 01:59:41;;;;;;;4.70;3.10;;;9.00;99.90;;;8.65;100.00;102192.81;4219926;28;20032;-70
2021/10/13 02:01:44;;;;;;;10.95;4.47;;;9.00;99.90;;;8.66;100.00;102202.38;4219636;28;20489;-70
2021/10/13 02:03:48;;;;;;;3.53;2.75;;;9.00;99.90;;;8.71;100.00;102195.84;4219500;28;20024;-70
2021/10/13 02:05:53;;;;;;;4.18;2.72;;;9.10;99.90;;;8.70;100.00;102199.41;4219750;28;20179;-70
2021/10/13 02:07:56;;;;;;;7.10;3.00;;;9.10;99.90;;;8.72;100.00;102200.13;4219135;28;20078;-70
2021/10/13 02:10:03;;;;;;;6.20;3.35;;;9.10;99.90;;;8.56;100.00;102194.28;4219551;28;20020;-69
2021/10/13 02:12:05;;;;;;;5.40;2.95;;;9.00;99.90;;;8.50;100.00;102193.88;4219201;28;20031;-69
2021/10/13 02:14:11;;;;;;;6.35;2.97;;;9.00;99.90;;;8.48;100.00;102195.78;4219542;28;20031;-70
2021/10/13 02:16:12;;;;;;;5.65;2.63;;;8.90;99.90;;;8.49;100.00;102203.53;4214296;28;20511;-70
2021/10/13 02:18:18;;;;;;;5.88;3.08;;;8.90;99.90;;;8.53;100.00;102194.50;4203873;28;20035;-69
2021/10/13 02:20:21;;;;;;;3.28;2.60;;;9.00;99.90;;;8.48;100.00;102194.00;4202871;28;20035;-70
2021/10/13 02:22:26;;;;;;;7.93;4.13;;;8.90;99.90;;;8.66;100.00;102192.69;4185736;28;20021;-70
2021/10/13 02:24:43;;;;;;;9.70;3.65;;;8.90;99.90;;;8.80;100.00;102187.31;4202641;28;20028;-70
2021/10/13 02:26:46;;;;;;;6.82;3.88;;;9.00;99.90;;;8.75;100.00;102191.22;4202757;28;20020;-70
2021/10/13 02:28:57;;;;;;;4.60;3.30;;;9.10;99.90;;;8.70;100.00;102186.25;4202717;28;20453;-70
2021/10/13 02:30:58;;;;;;;6.78;4.55;;;9.10;99.90;;;8.67;100.00;102196.16;4202649;28;20103;-70
2021/10/13 02:33:00;;;;;;;6.93;4.18;;;9.10;99.90;;;8.81;100.00;102203.94;4185875;28;20043;-70
2021/10/13 02:35:03;;;;;;;7.82;3.95;;;9.10;99.90;;;8.78;100.00;102204.97;4185878;28;20029;-70
2021/10/13 02:37:04;;;;;;;6.13;3.60;;;9.10;99.90;;;8.66;100.00;102205.00;4202267;28;20021;-70
2021/10/13 02:39:06;;;;;;;8.00;4.47;;;9.10;99.90;;;8.65;100.00;102214.69;4202491;28;20103;-70
2021/10/13 02:41:07;;;;;;;10.00;4.78;;;9.10;99.90;;;8.75;100.00;102220.16;4203608;28;20078;-70
2021/10/13 02:43:10;;;;;;;8.15;4.05;;;9.10;99.90;;;8.71;100.00;102214.25;4202398;28;20040;-70
2021/10/13 02:45:11;;;;;;;6.97;3.60;;;9.10;99.90;;;8.69;100.00;102215.31;4185705;28;20021;-70
2021/10/13 02:47:45;;;;;;;6.50;4.05;;;9.10;99.90;;;8.68;100.00;102209.22;4219077;28;20028;-70
2021/10/13 02:50:22;;;;;;;5.30;3.42;;;9.10;99.90;;;8.71;100.00;102214.25;4199457;28;20028;-70
2021/10/13 02:52:55;;;;;;;9.35;4.97;;;9.10;99.90;;;8.65;100.00;102211.22;4201871;28;20060;-70
2021/10/13 02:55:08;;;;;;;7.13;3.80;;;9.10;99.90;;;8.57;100.00;102209.09;4202391;28;20020;-70
2021/10/13 02:57:11;;;;;;;8.80;3.88;;;9.00;99.90;;;8.62;100.00;102214.06;4202181;28;20033;-70
2021/10/13 02:59:36;;;;;;;12.63;4.90;;;9.00;99.90;;;8.63;100.00;102221.00;4202404;28;20100;-70
2021/10/13 03:01:43;;;;;;;8.13;4.18;;;9.10;99.90;;;8.64;100.00;102220.88;4202158;28;20028;-70
2021/10/13 03:03:59;;;;;;;8.32;4.82;;;9.00;99.90;;;8.65;100.00;102222.59;4202010;28;20024;-70
2021/10/13 03:06:04;;;;;;;7.22;4.18;;;9.00;99.90;;;8.80;100.00;102224.13;4202246;28;20028;-70
2021/10/13 03:08:07;;;;;;;;;;;9.10;99.90;;;8.93;100.00;102228.53;4202229;28;20027;-70
2021/10/13 03:10:10;;;;;;;10.80;4.60;;;9.20;99.90;;;8.80;100.00;102231.19;4201915;28;19909;-70
2021/10/13 03:12:12;;;;;;;5.95;4.00;;;9.20;99.90;;;8.81;100.00;102225.78;4202060;28;20052;-70
2021/10/13 03:14:17;;;;;;;6.20;3.97;;;9.20;99.90;;;8.82;100.00;102235.38;4202177;28;20029;-70
2021/10/13 03:16:20;;;;;;;6.93;4.28;;;9.20;99.90;;;8.81;100.00;102231.06;4203062;28;20048;-70
2021/10/13 03:18:23;;;;;;;9.23;4.93;;;9.20;99.90;;;8.81;100.00;102224.97;4201874;28;20031;-70
2021/10/13 03:20:26;;;;;;;8.35;3.92;;;9.20;99.90;;;8.82;100.00;102210.84;4201965;28;20020;-70
2021/10/13 03:22:28;;;;;;;5.57;4.13;;;9.20;99.90;;;8.80;100.00;102224.13;4184979;28;20032;-70
2021/10/13 03:24:29;;;;;;;9.88;3.97;;;9.20;99.90;;;8.76;100.00;102216.56;4197831;28;20036;-70
2021/10/13 03:26:30;;;;;;;7.60;3.90;;;9.10;99.90;;;8.73;100.00;102214.13;4201679;28;20024;-70
2021/10/13 03:28:33;;;;;;;8.43;4.43;;;9.10;99.90;;;8.83;100.00;102217.81;4203015;28;20021;-70
2021/10/13 03:30:34;;;;;;;10.98;4.65;;;9.10;99.90;;;8.80;100.00;102207.50;4185107;28;20025;-70
2021/10/13 03:32:35;;;;;;;7.60;4.20;;;9.20;99.90;;;8.80;100.00;102207.50;4197575;28;20082;-70
2021/10/13 03:34:40;;;;;;;9.43;4.60;;;9.10;99.90;;;8.79;100.00;102209.28;4201507;28;20024;-70
2021/10/13 03:36:48;;;;;;;5.50;3.95;;;9.20;99.90;;;8.83;100.00;102215.19;4184806;28;20037;-70
2021/10/13 03:38:49;;;;;;;7.72;4.22;;;9.20;99.90;;;8.70;100.00;102209.94;4195295;28;20028;-70
2021/10/13 03:40:50;;;;;;;9.05;4.35;;;9.10;99.90;;;8.62;100.00;102214.06;4202513;28;20037;-70
2021/10/13 03:42:52;;;;;;;8.18;3.92;;;9.10;99.90;;;8.63;100.00;102213.13;4201500;28;20033;-70
2021/10/13 03:44:52;;;;;;;9.18;4.85;;;9.10;99.90;;;8.73;100.00;102217.63;4201569;28;20025;-70
2021/10/13 03:46:53;;;;;;;10.13;4.90;;;9.10;99.90;;;8.76;100.00;102216.56;4202724;28;20020;-70
2021/10/13 03:48:54;;;;;;;9.55;5.22;;;9.10;99.90;;;8.76;100.00;102212.13;4202394;28;20029;-70
2021/10/13 03:50:55;;;;;;;7.30;3.83;;;9.20;99.90;;;8.74;100.00;102214.03;4201533;28;20048;-69
2021/10/13 03:52:56;;;;;;;7.50;4.78;;;9.20;99.90;;;8.72;100.00;102229.06;4201144;28;20032;-70
2021/10/13 03:54:57;;;;;;;8.23;3.85;;;9.20;99.90;;;8.72;100.00;102231.72;4201186;28;20103;-70
2021/10/13 03:56:58;;;;;;;6.68;4.18;;;9.10;99.90;;;8.78;100.00;102233.09;4202440;28;20036;-70
2021/10/13 03:59:00;;;;;;;6.47;4.72;;;9.10;99.90;;;8.82;100.00;102231.91;4201117;28;20024;-70
2021/10/13 04:01:01;;;;;;;8.45;5.70;;;9.10;99.90;;;8.81;100.00;102232.88;4201297;28;20032;-70
2021/10/13 04:03:02;;;;;;;8.50;4.57;;;9.20;99.90;;;8.84;100.00;102230.84;4201111;28;20039;-70
2021/10/13 04:05:06;;;;;;;8.02;3.67;;;9.20;99.90;;;8.85;100.00;102234.31;4201242;28;20024;-70
2021/10/13 04:07:06;;;;;;;9.52;3.90;;;9.20;99.90;;;8.83;100.00;102239.72;4200924;28;20024;-70
2021/10/13 04:09:08;;;;;;;8.38;3.90;;;9.20;99.90;;;8.78;100.00;102239.16;4202318;28;20060;-70
2021/10/13 04:11:09;;;;;;;7.80;4.80;;;9.20;99.90;;;8.87;100.00;102237.66;4200919;28;20496;-70
2021/10/13 04:13:10;;;;;;;10.73;5.25;;;9.20;99.90;;;8.95;100.00;102240.63;4200926;28;20099;-70
2021/10/13 04:15:12;;;;;;;9.63;4.50;;;9.20;99.90;;;8.82;100.00;102232.75;4201048;28;20029;-70
2021/10/13 04:17:13;;;;;;;7.43;4.35;;;9.20;99.90;;;8.82;100.00;102238.00;4184143;28;20132;-70
2021/10/13 04:19:13;;;;;;;8.73;4.40;;;9.20;99.90;;;8.77;100.00;102234.88;4202151;28;20396;-70
2021/10/13 04:21:14;;;;;;;8.10;3.95;;;9.20;99.90;;;8.73;100.00;102237.81;4200730;28;20025;-70
2021/10/13 04:23:16;;;;;;;12.00;4.60;;;9.20;99.90;;;8.73;100.00;102238.66;4217601;28;20064;-70
2021/10/13 04:25:17;;;;;;;8.77;4.28;;;9.10;99.90;;;8.72;100.00;102252.75;4201013;28;20113;-70
2021/10/13 04:27:18;;;;;;;4.95;3.85;;;9.10;99.90;;;8.70;100.00;102244.13;4202030;28;20036;-70
2021/10/13 04:29:19;;;;;;;10.63;4.28;;;9.10;99.90;;;8.69;100.00;102242.44;4200796;28;20063;-70
2021/10/13 04:31:20;;;;;;;5.18;3.95;;;9.10;99.90;;;8.67;100.00;102240.88;4200885;28;20452;-70
2021/10/13 04:33:21;;;;;;;5.20;3.72;;;9.10;99.90;;;8.69;100.00;102244.25;4200835;28;20538;-70
2021/10/13 04:35:22;;;;;;;5.82;3.92;;;9.10;99.90;;;8.65;100.00;102246.25;4201941;28;20031;-70
2021/10/13 04:37:23;;;;;;;8.48;4.65;;;9.10;99.90;;;8.65;100.00;102245.41;4200448;28;20547;-70
2021/10/13 04:39:24;;;;;;;5.45;4.18;;;9.10;99.90;;;8.65;100.00;102245.41;4201895;28;20036;-70
2021/10/13 04:41:25;;;;;;;6.43;4.05;;;9.00;99.90;;;8.62;100.00;102249.09;4200624;28;20033;-70
2021/10/13 04:43:25;;;;;;;9.82;4.82;;;9.00;99.90;;;8.56;100.00;102248.69;4201883;28;20431;-70
2021/10/13 04:45:27;;;;;;;8.70;5.00;;;9.00;99.90;;;8.55;100.00;102244.34;4201835;28;20029;-70
2021/10/13 04:47:28;;;;;;;5.78;3.83;;;9.00;99.90;;;8.56;100.00;102246.03;4200514;28;20028;-70
2021/10/13 04:49:29;;;;;;;5.72;4.30;;;9.00;99.90;;;8.58;100.00;102247.63;4200530;28;20028;-70
2021/10/13 04:51:30;;;;;;;6.95;3.65;;;9.00;99.90;;;8.59;100.00;102246.69;4200342;28;20024;-70
2021/10/13 04:53:31;;;;;;;5.10;3.85;;;9.00;99.90;;;8.55;100.00;102250.47;4200555;28;20032;-70
2021/10/13 04:55:32;;;;;;;7.00;3.80;;;8.90;99.90;;;8.56;100.00;102244.25;4200395;28;20020;-70
2021/10/13 04:57:33;;;;;;;7.10;4.22;;;8.90;99.90;;;8.64;100.00;102246.34;4200616;28;20047;-70
2021/10/13 04:59:34;;;;;;;8.38;4.70;;;8.90;99.90;;;8.66;100.00;102252.38;4201700;28;20028;-70
2021/10/13 05:01:34;;;;;;;6.30;4.07;;;9.00;99.90;;;8.55;100.00;102250.47;4200391;28;20488;-70
2021/10/13 05:03:37;;;;;;;6.07;4.10;;;9.00;99.90;;;8.55;100.00;102255.72;4201573;28;20385;-70
2021/10/13 05:05:38;;;;;;;6.75;3.88;;;8.90;99.90;;;8.53;100.00;102252.38;4201770;28;20017;-70
2021/10/13 05:07:38;;;;;;;4.82;3.38;;;8.90;99.90;;;8.54;100.00;102255.84;4201398;28;20507;-70
2021/10/13 05:09:39;;;;;;;7.72;4.15;;;8.90;99.90;;;8.45;100.00;102253.84;4200434;28;20033;-70
2021/10/13 05:11:41;;;;;;;5.55;3.78;;;8.90;99.90;;;8.50;100.00;102257.84;4183581;28;20107;-70
2021/10/13 05:13:42;;;;;;;9.02;4.00;;;8.90;99.90;;;8.48;100.00;102265.00;4204519;28;20032;-70
2021/10/13 05:15:44;;;;;;;6.25;3.70;;;8.80;99.90;;;8.47;100.00;102258.03;4192025;28;20060;-70
2021/10/13 05:17:45;;;;;;;8.57;4.75;;;8.80;99.90;;;8.50;100.00;102257.84;4183511;28;20067;-70
2021/10/13 05:19:46;;;;;;;6.28;4.57;;;8.80;99.90;;;8.47;100.00;102271.19;4200201;28;20434;-70
2021/10/13 05:21:46;;;;;;;9.98;5.18;;;8.80;99.90;;;8.45;100.00;102259.94;4200836;28;20135;-70
2021/10/13 05:23:47;;;;;;;8.80;4.63;;;8.80;99.90;;;8.43;100.00;102258.34;4204907;28;20025;-70
2021/10/13 05:25:48;;;;;;;8.07;4.40;;;8.80;99.90;;;8.39;100.00;102260.38;4204985;28;20048;-71
2021/10/13 05:27:49;;;;;;;9.65;4.70;;;8.80;99.90;;;8.38;100.00;102257.84;4204996;28;20024;-70
2021/10/13 05:29:50;;;;;;;4.93;3.58;;;8.80;99.90;;;8.41;100.00;102261.09;4203732;28;20043;-70
2021/10/13 05:31:52;;;;;;;8.07;4.32;;;8.80;99.90;;;8.41;100.00;102268.97;4203343;28;20029;-70
2021/10/13 05:33:53;;;;;;;9.40;4.55;;;8.80;99.90;;;8.36;100.00;102265.84;4204766;28;20037;-70
2021/10/13 05:35:54;;;;;;;4.38;3.50;;;8.80;99.90;;;8.36;100.00;102267.63;4204828;28;20028;-70
2021/10/13 05:37:55;;;;;;;6.30;4.53;;;8.70;99.90;;;8.19;100.00;102269.56;4203180;28;20097;-70
2021/10/13 05:39:56;;;;;;;6.63;4.18;;;8.70;99.90;;;8.17;100.00;102281.13;4204750;28;20028;-70
2021/10/13 05:41:57;;;;;;;8.00;4.50;;;8.70;99.90;;;8.17;100.00;102279.34;4204492;28;20488;-70
2021/10/13 05:43:58;;;;;;;8.15;4.30;;;8.60;99.90;;;8.18;100.00;102270.50;4203188;28;20029;-70
2021/10/13 05:45:59;;;;;;;8.55;4.70;;;8.60;99.90;;;8.19;100.00;102272.19;4203170;28;20463;-70
2021/10/13 05:48:00;;;;;;;5.88;4.30;;;8.60;99.90;;;8.21;100.00;102278.16;4204607;28;20035;-70
2021/10/13 05:50:01;;;;;;;8.57;4.75;;;8.60;99.90;;;8.18;100.00;102270.50;4203222;28;20032;-70
2021/10/13 05:52:01;;;;;;;6.22;4.05;;;8.60;99.90;;;8.19;100.00;102274.81;4204305;28;20111;-70
2021/10/13 05:54:02;;;;;;;6.95;4.25;;;8.60;99.90;;;8.21;100.00;102288.69;4204436;28;20031;-70
2021/10/13 05:56:04;;;;;;;9.43;4.43;;;8.60;99.90;;;8.28;100.00;102287.38;4203374;28;20036;-70
2021/10/13 05:58:06;;;;;;;4.88;3.97;;;8.60;99.90;;;8.22;100.00;102282.50;4203296;28;20069;-70
2021/10/13 06:00:07;;;;;;;5.28;4.03;;;8.60;99.90;;;8.15;100.00;102290.91;4202965;28;20040;-70
2021/10/13 06:02:08;;;;;;;5.53;3.58;;;8.60;99.90;;;8.14;100.00;102289.22;4202830;28;20040;-70
2021/10/13 06:04:09;;;;;;;5.18;3.78;;;8.60;99.90;;;8.09;100.00;102296.56;4203165;28;20183;-70
2021/10/13 06:06:10;;;;;;;9.07;4.38;;;8.60;99.90;;;8.15;100.00;102298.78;4204006;28;20095;-70
2021/10/13 06:08:12;;;;;;;7.18;4.20;;;8.60;99.90;;;8.20;100.00;102305.44;4204147;28;20028;-70
2021/10/13 06:10:13;;;;;;;8.40;5.75;;;8.60;99.90;;;8.12;100.00;102299.00;4204013;28;20078;-70
2021/10/13 06:12:14;;;;;;;10.75;5.20;;;8.50;99.90;;;8.16;100.00;102308.34;4202991;28;20111;-70
2021/10/13 06:14:15;;;;;;;8.90;5.28;;;8.50;99.90;;;8.32;100.00;102302.00;4202918;28;20543;-70
2021/10/13 06:16:16;;;;;;;8.80;5.38;;;8.60;99.90;;;8.24;100.00;102303.44;4202756;28;20072;-70
2021/10/13 06:18:17;;;;;;;8.27;4.97;;;8.60;99.90;;;8.20;100.00;102301.94;4203935;28;20077;-70
2021/10/13 06:20:18;;;;;;;9.82;4.95;;;8.60;99.90;;;8.17;100.00;102313.50;4203977;28;20024;-70
2021/10/13 06:22:18;;;;;;;7.22;4.63;;;8.60;99.90;;;8.22;100.00;102314.03;4203260;28;20063;-70
2021/10/13 06:24:19;;;;;;;8.38;5.10;;;8.60;99.90;;;8.07;100.00;102322.09;4203757;28;20104;-70
2021/10/13 06:26:23;;;;;;;9.93;5.18;;;8.60;99.90;;;8.15;100.00;102319.81;4203605;28;20017;-70
2021/10/13 06:28:24;;;;;;;10.95;6.30;;;8.60;99.90;;;8.04;100.00;102336.28;4202590;28;20431;-70
2021/10/13 06:30:25;;;;;;;8.13;5.40;;;8.60;99.90;;;8.05;100.00;102326.63;4203806;28;20056;-70
2021/10/13 06:32:26;;;;;;;7.28;5.00;;;8.60;99.90;;;8.18;100.00;102333.56;4202374;28;20032;-70
2021/10/13 06:34:27;;;;;;;7.80;4.90;;;8.60;99.90;;;8.24;100.00;102337.63;4202274;28;20024;-70
2021/10/13 06:36:28;;;;;;;8.52;4.93;;;8.60;99.90;;;8.21;100.00;102330.75;4202934;28;20051;-70
2021/10/13 06:38:29;;;;;;;14.02;6.25;;;8.60;99.90;;;8.29;100.00;102332.91;4203627;28;20020;-70
2021/10/13 06:40:30;;;;;;;9.43;5.82;;;8.70;99.90;;;8.27;100.00;102335.63;4185667;28;20086;-70
2021/10/13 06:42:31;;;;;;;7.53;5.15;;;8.70;99.90;;;8.26;100.00;102330.47;4203394;28;20070;-69
2021/10/13 06:44:32;;;;;;;9.93;6.28;;;8.70;99.90;;;8.31;100.00;102336.28;4203710;28;20025;-69
2021/10/13 06:46:33;;;;;;;11.50;5.95;;;8.80;99.90;;;8.39;100.00;102338.41;4202368;28;20029;-70
2021/10/13 06:48:33;;;;;;;8.30;5.68;;;8.80;99.90;;;8.45;100.00;102341.47;4202249;28;20027;-69
2021/10/13 06:50:36;;;;;;;11.68;5.85;;;8.90;99.90;;;8.47;100.00;102343.97;4203392;28;20016;-70
2021/10/13 06:52:37;;;;;;;8.00;4.57;;;8.90;99.90;;;8.46;100.00;102345.75;4202149;28;20467;-69
2021/10/13 06:54:38;;;;;;;5.97;4.93;;;8.90;99.90;;;8.51;100.00;102348.09;4203886;28;20028;-70
2021/10/13 06:56:39;;;;;;;8.10;5.07;;;9.00;99.90;;;8.52;100.00;102347.97;4204298;28;20029;-70
2021/10/13 06:58:40;;;;;;;8.18;4.95;;;9.00;99.90;;;8.53;100.00;102349.69;4203085;28;20062;-70
2021/10/13 07:00:41;;;;;;;7.25;5.43;;;9.00;99.90;;;8.56;100.00;102356.50;4204199;28;20028;-70
2021/10/13 07:02:42;;;;;;;8.25;5.28;;;9.00;99.90;;;8.50;100.00;102347.25;4204082;28;20569;-70
2021/10/13 07:04:43;;;;;;;7.78;5.10;;;9.00;99.90;;;8.55;100.00;102353.03;4202872;28;20031;-70
2021/10/13 07:06:44;;;;;;;8.75;5.85;;;9.10;99.90;;;8.62;100.00;102358.72;4202527;28;20021;-70
2021/10/13 07:08:46;;;;;;;9.85;6.47;;;9.10;99.90;;;8.71;100.00;102356.31;4202950;28;20033;-70
2021/10/13 07:10:48;;;;;;;10.55;5.93;;;9.20;99.90;;;8.77;100.00;102363.78;4203971;28;20070;-70
2021/10/13 07:12:49;;;;;;;6.80;5.10;;;9.20;99.90;;;8.75;100.00;102357.78;4204133;28;20032;-70
2021/10/13 07:14:50;;;;;;;10.50;5.28;;;9.20;99.90;;;8.89;100.00;102370.00;4202908;28;20024;-70
2021/10/13 07:16:51;;;;;;;7.65;5.15;;;9.30;99.90;;;8.89;100.00;102372.63;4203429;28;20066;-70
2021/10/13 07:18:52;;;;;;;13.48;6.25;;;9.30;99.90;;;8.96;100.00;102376.50;4202213;28;20040;-70
2021/10/13 07:20:53;;;;;;;9.68;6.00;;;9.40;99.90;;;8.97;100.00;102375.56;4203329;28;20129;-70
2021/10/13 07:22:54;;;;;;;8.68;5.32;;;9.50;99.90;;;9.00;100.00;102371.88;4185166;28;20025;-70
2021/10/13 07:24:57;;;;;;;8.30;4.68;;;9.50;99.90;;;9.02;100.00;102380.53;4201824;28;20025;-70
2021/10/13 07:26:57;;;;;;;10.85;5.93;;;9.50;99.90;;;9.09;100.00;102387.03;4201631;28;20468;-70
2021/10/13 07:28:58;;;;;;;16.05;10.65;;;9.60;99.90;;;9.10;100.00;102380.84;4202798;28;20059;-70
2021/10/13 07:30:59;;;;;;;9.82;7.30;;;9.60;99.90;;;9.12;100.00;102392.09;4201187;28;20055;-70
2021/10/13 07:33:00;;;;;;;13.82;7.53;;;9.60;99.90;;;9.16;100.00;102388.31;4202535;28;20036;-70
2021/10/13 07:35:02;;;;;;;12.18;6.85;;;9.60;99.90;;;9.19;100.00;102390.72;4201502;28;20032;-70
2021/10/13 07:37:04;;;;;;;12.07;8.63;;;9.70;99.90;;;9.17;100.00;102390.00;4201258;28;20038;-70
2021/10/13 07:39:06;;;;;;;13.55;8.95;;;9.70;99.90;;;9.14;100.00;102390.22;4184731;28;20463;-70
2021/10/13 07:41:07;;;;;;;14.82;10.82;;;9.70;99.90;;;9.12;100.00;102389.47;4217506;28;20024;-70
2021/10/13 07:43:08;;;;;;;14.73;10.45;;;9.70;99.90;;;9.11;100.00;102385.97;4202468;28;20585;-70
2021/10/13 07:45:10;;;;;;;10.63;7.45;;;9.70;99.90;;;9.25;100.00;102383.25;4201824;28;20086;-70
2021/10/13 07:47:11;;;;;;;12.15;7.57;;;9.80;99.90;;;9.43;100.00;102386.38;4168586;28;20112;-71
2021/10/13 07:49:12;;;;;;;12.77;8.23;;;9.90;99.90;;;9.50;100.00;102389.44;4096565;28;20046;-70
2021/10/13 07:51:13;;;;;;;12.05;7.07;;;9.90;99.90;;;9.51;100.00;102389.31;4097660;28;20411;-70
2021/10/13 07:53:14;;;;;;;15.57;9.60;;;10.00;99.90;;;9.50;100.00;102384.97;4116476;28;20088;-69
2021/10/13 07:55:15;;;;;;;16.02;9.68;;;10.00;99.90;;;9.59;100.00;102396.69;4115356;28;20077;-70
2021/10/13 07:57:16;;;;;;;15.55;7.25;;;10.20;99.90;;;9.74;100.00;102400.81;4116941;28;20022;-70
2021/10/13 07:59:17;;;;;;;9.07;6.22;;;10.20;99.90;;;9.77;100.00;102398.81;4118189;28;20398;-70
2021/10/13 08:01:17;;;;;;;11.43;6.68;;;10.30;99.90;;;9.92;100.00;102404.78;4116899;28;20122;-70
2021/10/13 08:03:18;;;;;;;12.90;6.40;;;10.30;99.90;;;10.10;100.00;102403.44;4118099;28;20027;-70
2021/10/13 08:05:19;;;;;;;10.77;6.25;;;10.40;99.90;;;10.05;100.00;102400.31;4116921;28;20035;-70
2021/10/13 08:07:20;;;;;;;12.57;6.90;;;10.50;99.90;;;10.16;100.00;102405.66;4100710;28;20080;-70
2021/10/13 08:09:21;;;;;;;9.23;5.90;;;10.50;99.90;;;10.30;100.00;102407.28;4116881;28;20027;-70
2021/10/13 08:11:22;;;;;;;8.40;5.80;;;10.70;99.90;;;10.37;100.00;102408.50;4100764;28;20027;-70
2021/10/13 08:13:23;;;;;;;11.65;5.78;;;10.80;99.90;;;10.39;100.00;102406.59;4116656;28;20493;-70
2021/10/13 08:15:24;;;;;;;11.63;6.15;;;10.80;99.90;;;10.38;100.00;102410.19;4118486;28;20054;-70
2021/10/13 08:17:25;;;;;;;8.88;5.82;;;10.90;99.90;;;10.39;100.00;102406.59;4117490;28;20047;-71
2021/10/13 08:19:26;;;;;;;12.20;6.18;;;10.90;99.90;;;10.43;100.00;102402.75;4117946;28;20038;-72
2021/10/13 08:21:27;;;;;;;9.23;6.18;;;10.90;99.90;;;10.52;100.00;102412.63;4117599;28;20030;-72
2021/10/13 08:23:28;;;;;;;8.52;5.95;;;11.00;99.90;;;10.44;100.00;102401.81;4117985;28;20023;-73
2021/10/13 08:25:29;;;;;;;10.15;5.90;;;11.00;99.90;;;10.42;100.00;102403.75;4116720;28;20161;-73
2021/10/13 08:27:30;;;;;;;9.35;5.78;;;11.10;99.90;;;10.40;100.00;102398.56;4116470;28;20019;-73
2021/10/13 08:29:31;;;;;;;8.95;7.07;;;11.10;99.90;;;10.37;100.00;102405.84;4117790;28;20391;-73
2021/10/13 08:31:31;;;;;;;8.40;6.05;;;11.10;99.90;;;10.40;100.00;102408.28;4117862;28;20101;-73
2021/10/13 08:33:32;;;;;;;11.57;7.18;;;11.00;99.90;;;10.52;100.00;102420.53;4116654;28;20034;-72
2021/10/13 08:35:33;;;;;;;11.77;6.55;;;11.00;99.90;;;10.62;100.00;102426.81;4116538;28;20035;-73
2021/10/13 08:37:35;;;;;;;8.52;6.63;;;11.10;99.90;;;10.74;100.00;102425.06;4115898;28;20022;-73
2021/10/13 08:39:36;;;;;;;13.27;7.32;;;11.20;99.90;;;10.70;100.00;102419.16;4116535;28;20064;-73